METAR Data
IDs: Format: Raw Decoded Include TAF

Data at: 1824 UTC 12 Dec 2018

METAR for:KLHQ (Lancaster/Fairfield, OH, US)
Text:KLHQ 121753Z AUTO 15010KT 10SM CLR 05/M03 A2996 RMK AO2 SLP152 T00501033 10056 21028 58029
Temperature: 5.0°C ( 41°F)
Dewpoint: -3.3°C ( 26°F) [RH = 55%]
Pressure (altimeter):29.96 inches Hg (1014.6 mb) [Sea level pressure: 1015.2 mb]
Winds:from the SSE (150 degrees) at 12 MPH (10 knots; 5.1 m/s)
Visibility:10 or more sm (16+ km)
Ceiling:at least 12,000 feet AGL
Clouds:sky clear below 12,000 feet AGL
QC Flag:automated observation with no human augmentation